Novaya Igirma, Russia
Current Conditions -  °F | °C
As of 2:30 PM on Wednesday 22 Oct 2014 (Local Time) from UIBB Reporting Station
Broken Clouds Broken Clouds  
Wind Chill: 24°   Ceiling: 3300
Heat Index: 34°   Visibility: 6mi
Dew Point: 21°   Wind: 13mph
Humidity: 60%   Direction: 260°W
Pressure: 29.94"   Gusts: NA
Location:  57.14°N, 103.91°E
Report Text: UIBB 220630Z 26006MPS 9999 BKN033CB 01/M06 Q1014 NOSIG RMKQFE717/0957 30390134
Loading
Personal Weather Stations






























Interactive Weather Map
Tropical Storm Tracking
New forecast layout! Learn more

10-Day Weather Forecast

Advertisements
Track Severe Weather on mobile